createdAt,value
2023-01-25T00:00:42.296Z,54.70
2023-01-25T00:03:13.049Z,56.00
2023-01-25T00:05:43.569Z,55.10
2023-01-25T00:08:14.124Z,54.60
2023-01-25T00:10:44.880Z,54.90
2023-01-25T00:13:15.212Z,55.30
2023-01-25T00:15:45.642Z,55.20
2023-01-25T00:18:15.852Z,55.00
2023-01-25T00:20:46.323Z,55.80
2023-01-25T00:23:19.699Z,54.50
2023-01-25T00:25:54.910Z,52.90
2023-01-25T00:28:35.977Z,54.80
2023-01-25T00:31:17.625Z,53.60
2023-01-25T00:34:13.012Z,51.40
2023-01-25T00:36:49.504Z,50.90
2023-01-25T00:39:28.366Z,51.00
2023-01-25T00:42:08.756Z,49.20
2023-01-25T00:44:50.871Z,49.00
2023-01-25T00:47:37.699Z,46.50
2023-01-25T00:50:22.601Z,47.60
2023-01-25T00:52:53.332Z,47.80
2023-01-25T00:55:26.881Z,47.80
2023-01-25T00:58:01.753Z,48.20
2023-01-25T01:00:47.271Z,48.90
2023-01-25T01:03:18.604Z,45.50
2023-01-25T01:05:52.699Z,47.30
2023-01-25T01:08:48.614Z,47.10
2023-01-25T01:11:22.643Z,47.70
2023-01-25T01:14:16.271Z,47.90
2023-01-25T01:16:46.809Z,49.90
2023-01-25T01:19:21.134Z,50.20
2023-01-25T01:21:56.922Z,51.30
2023-01-25T01:24:37.726Z,50.50
2023-01-25T01:27:11.962Z,50.10
2023-01-25T01:29:45.019Z,48.70
2023-01-25T01:32:18.257Z,48.20
2023-01-25T01:34:51.725Z,47.40
2023-01-25T01:37:30.995Z,47.80
2023-01-25T01:40:01.674Z,46.50
2023-01-25T01:42:33.268Z,46.40
2023-01-25T01:45:44.878Z,44.70
2023-01-25T01:48:23.215Z,45.40
2023-01-25T01:51:01.905Z,45.00
2023-01-25T01:53:40.914Z,44.10
2023-01-25T01:56:20.384Z,44.80
2023-01-25T01:59:00.574Z,44.60
2023-01-25T02:01:41.498Z,43.90
2023-01-25T02:04:16.235Z,43.40
2023-01-25T02:07:17.107Z,43.10
2023-01-25T02:09:53.894Z,43.10
2023-01-25T02:12:36.092Z,42.10
2023-01-25T02:15:11.226Z,41.60
2023-01-25T02:17:48.077Z,42.20
2023-01-25T02:20:44.230Z,43.40
2023-01-25T02:23:27.291Z,41.60
2023-01-25T02:26:06.285Z,42.40
2023-01-25T02:29:09.929Z,41.80
2023-01-25T02:31:40.851Z,41.20
2023-01-25T02:34:13.711Z,41.40
2023-01-25T02:36:45.899Z,41.90
2023-01-25T02:39:21.952Z,41.30
2023-01-25T02:41:58.542Z,41.50
2023-01-25T02:44:37.263Z,41.40
2023-01-25T02:47:10.496Z,41.30
2023-01-25T02:49:41.847Z,43.60
2023-01-25T02:52:22.352Z,41.70
2023-01-25T02:55:04.513Z,42.20
2023-01-25T02:57:38.907Z,42.40
2023-01-25T03:00:11.617Z,42.80
2023-01-25T03:02:43.387Z,41.10
2023-01-25T03:05:13.882Z,41.70
2023-01-25T03:07:48.469Z,42.40
2023-01-25T03:10:23.085Z,40.30
2023-01-25T03:12:55.686Z,41.90
2023-01-25T03:15:26.165Z,40.80
2023-01-25T03:18:00.097Z,41.00
2023-01-25T03:20:33.826Z,41.00
2023-01-25T03:23:04.301Z,41.30
2023-01-25T03:25:36.997Z,40.30
2023-01-25T03:28:08.715Z,40.20
2023-01-25T03:30:43.619Z,41.10
2023-01-25T03:33:17.571Z,41.30
2023-01-25T03:35:49.079Z,41.40
2023-01-25T03:38:32.154Z,37.90
2023-01-25T03:41:12.349Z,39.00
2023-01-25T03:43:42.996Z,40.10
2023-01-25T03:46:13.622Z,40.40
2023-01-25T03:48:44.299Z,40.50
2023-01-25T03:51:18.515Z,41.90
2023-01-25T03:53:55.636Z,40.20
2023-01-25T03:56:39.931Z,39.00
2023-01-25T03:59:14.712Z,39.40
2023-01-25T04:01:48.721Z,40.50
2023-01-25T04:04:19.824Z,40.00
2023-01-25T04:06:53.608Z,40.60
2023-01-25T04:09:32.742Z,40.50
2023-01-25T04:12:05.736Z,40.30
2023-01-25T04:14:44.946Z,40.80
2023-01-25T04:17:23.667Z,40.40
2023-01-25T04:19:55.133Z,40.20
2023-01-25T04:22:28.771Z,40.10
2023-01-25T04:25:04.606Z,40.30
2023-01-25T04:27:38.967Z,39.80
2023-01-25T04:30:18.046Z,39.50
2023-01-25T04:32:49.174Z,40.20
2023-01-25T04:35:25.926Z,41.00
2023-01-25T04:38:04.018Z,40.10
2023-01-25T04:40:36.436Z,40.50
2023-01-25T04:43:08.798Z,40.40
2023-01-25T04:45:39.407Z,39.90
2023-01-25T04:48:14.765Z,40.00
2023-01-25T04:50:59.753Z,39.20
2023-01-25T04:53:33.636Z,39.00
2023-01-25T04:56:06.361Z,38.40
2023-01-25T04:58:39.656Z,39.60
2023-01-25T05:01:14.985Z,40.00
2023-01-25T05:03:46.373Z,37.40
2023-01-25T05:06:22.236Z,37.70
2023-01-25T05:08:52.335Z,39.20
2023-01-25T05:11:28.304Z,38.00
2023-01-25T05:14:12.536Z,38.60
2023-01-25T05:16:43.215Z,38.50
2023-01-25T05:19:14.258Z,38.70
2023-01-25T05:22:02.984Z,39.40
2023-01-25T05:24:37.124Z,38.60
2023-01-25T05:27:09.057Z,38.80
2023-01-25T05:29:44.638Z,39.10
2023-01-25T05:32:26.052Z,39.80
2023-01-25T05:34:57.444Z,39.30
2023-01-25T05:37:28.917Z,39.30
2023-01-25T05:39:59.567Z,39.30
2023-01-25T05:42:29.817Z,38.70
2023-01-25T05:45:00.050Z,39.40
2023-01-25T05:47:30.418Z,39.60
2023-01-25T05:50:02.215Z,39.10
2023-01-25T05:52:32.438Z,38.30
2023-01-25T05:55:04.094Z,39.80
2023-01-25T05:57:34.303Z,41.40
2023-01-25T06:00:05.342Z,41.10
2023-01-25T06:02:35.777Z,40.70
2023-01-25T06:05:07.844Z,39.10
2023-01-25T06:07:39.104Z,40.30
2023-01-25T06:10:10.015Z,41.00
2023-01-25T06:12:42.109Z,40.70
2023-01-25T06:15:12.851Z,40.00
2023-01-25T06:17:43.060Z,41.00
2023-01-25T06:20:14.390Z,40.40
2023-01-25T06:22:44.638Z,41.50
2023-01-25T06:25:14.965Z,41.70
2023-01-25T06:27:45.712Z,42.60
2023-01-25T06:30:18.251Z,42.60
2023-01-25T06:32:48.494Z,42.20
2023-01-25T06:35:20.607Z,42.10
2023-01-25T06:37:51.011Z,41.10
2023-01-25T06:40:21.711Z,40.10
2023-01-25T06:42:51.975Z,42.10
2023-01-25T06:45:22.463Z,42.00
2023-01-25T06:47:53.793Z,42.60
2023-01-25T06:50:24.485Z,42.50
2023-01-25T06:52:56.475Z,42.50
2023-01-25T06:55:27.284Z,43.00
2023-01-25T06:57:58.725Z,42.10
2023-01-25T07:00:29.894Z,41.60
2023-01-25T07:03:00.980Z,42.40
2023-01-25T07:05:31.381Z,43.10
2023-01-25T07:08:01.765Z,42.30
2023-01-25T07:10:33.906Z,42.70
2023-01-25T07:13:04.279Z,42.90
2023-01-25T07:15:35.195Z,42.00
2023-01-25T07:18:15.706Z,43.80
2023-01-25T07:20:47.632Z,43.30
2023-01-25T07:23:17.889Z,43.90
2023-01-25T07:25:52.912Z,43.10
2023-01-25T07:28:23.211Z,42.80
2023-01-25T07:30:53.602Z,42.90
2023-01-25T07:33:24.325Z,42.90
2023-01-25T07:35:54.644Z,43.50
2023-01-25T07:38:34.338Z,42.70
2023-01-25T07:41:05.616Z,42.90
2023-01-25T07:43:36.312Z,43.80
2023-01-25T07:46:15.076Z,43.10
2023-01-25T07:48:50.208Z,43.10
2023-01-25T07:51:25.561Z,42.40
2023-01-25T07:54:04.251Z,41.90
2023-01-25T07:56:37.014Z,43.10
2023-01-25T07:59:10.009Z,43.30
2023-01-25T08:01:41.923Z,42.60
2023-01-25T08:04:13.165Z,42.40
2023-01-25T08:06:43.488Z,41.60
2023-01-25T08:09:22.674Z,43.20
2023-01-25T08:11:54.995Z,42.90
2023-01-25T08:14:26.502Z,43.50
2023-01-25T08:16:56.798Z,44.70
2023-01-25T08:19:27.886Z,44.10
2023-01-25T08:21:58.213Z,43.70
2023-01-25T08:24:29.801Z,43.90
2023-01-25T08:27:00.132Z,44.10
2023-01-25T08:29:30.798Z,44.20
2023-01-25T08:32:03.205Z,44.10
2023-01-25T08:34:34.543Z,43.50
2023-01-25T08:37:04.836Z,43.70
2023-01-25T08:39:35.196Z,44.40
2023-01-25T08:42:05.528Z,43.50
2023-01-25T08:44:37.169Z,43.70
2023-01-25T08:47:07.827Z,44.30
2023-01-25T08:49:38.541Z,44.60
2023-01-25T08:52:09.457Z,44.80
2023-01-25T08:54:39.921Z,43.70
2023-01-25T08:57:10.129Z,45.80
2023-01-25T08:59:40.540Z,46.70
2023-01-25T09:02:14.665Z,45.10
2023-01-25T09:04:45.015Z,45.00
2023-01-25T09:07:15.827Z,45.70
2023-01-25T09:09:46.173Z,45.70
2023-01-25T09:12:16.902Z,46.30
2023-01-25T09:14:47.204Z,46.10
2023-01-25T09:17:17.880Z,47.80
2023-01-25T09:22:20.364Z,46.90
2023-01-25T09:24:53.892Z,47.30
2023-01-25T09:27:24.587Z,47.20
2023-01-25T09:30:01.687Z,47.40
2023-01-25T09:32:32.774Z,47.70
2023-01-25T09:35:03.091Z,47.90
2023-01-25T09:37:33.387Z,48.20
2023-01-25T09:40:05.283Z,48.00
2023-01-25T09:42:48.146Z,48.50
2023-01-25T09:45:36.344Z,49.50
2023-01-25T09:48:30.061Z,50.60
2023-01-25T09:51:18.700Z,50.30
2023-01-25T09:53:58.825Z,51.10
2023-01-25T09:56:36.606Z,51.60
2023-01-25T09:59:18.685Z,53.00
2023-01-25T10:01:59.414Z,53.40
2023-01-25T10:04:36.123Z,53.50
2023-01-25T10:07:27.549Z,53.30
2023-01-25T10:10:03.432Z,54.50
2023-01-25T10:12:39.563Z,55.30
2023-01-25T10:15:22.856Z,56.60
2023-01-25T10:18:27.825Z,56.50
2023-01-25T10:21:06.871Z,57.40
2023-01-25T10:23:58.588Z,57.50
2023-01-25T10:26:32.647Z,59.40
2023-01-25T10:29:26.117Z,58.70
2023-01-25T10:32:03.198Z,58.70
2023-01-25T10:34:55.314Z,60.00
2023-01-25T10:37:30.790Z,59.70
2023-01-25T10:40:08.911Z,60.50
2023-01-25T10:43:04.620Z,60.50
2023-01-25T10:45:35.441Z,61.20
2023-01-25T10:48:11.316Z,61.50
2023-01-25T10:50:50.011Z,62.60
2023-01-25T10:53:31.068Z,63.10
2023-01-25T10:56:09.396Z,62.90
2023-01-25T10:58:42.703Z,62.90
2023-01-25T11:01:26.161Z,63.50
2023-01-25T11:03:56.862Z,64.10
2023-01-25T11:06:38.683Z,64.70
2023-01-25T11:09:24.637Z,64.30
2023-01-25T11:12:19.292Z,65.20
2023-01-25T11:14:53.893Z,65.00
2023-01-25T11:17:33.578Z,65.80
2023-01-25T11:20:22.936Z,66.10
2023-01-25T11:22:58.867Z,66.50
2023-01-25T11:25:36.846Z,66.70
2023-01-25T11:28:33.377Z,67.20
2023-01-25T11:31:03.832Z,67.90
2023-01-25T11:33:34.172Z,67.60
2023-01-25T11:36:23.932Z,68.50
2023-01-25T11:39:11.242Z,68.60
2023-01-25T11:41:41.883Z,68.90
2023-01-25T11:44:30.546Z,69.10
2023-01-25T11:47:25.156Z,69.70
2023-01-25T11:50:33.486Z,69.50
2023-01-25T11:53:37.667Z,68.40
2023-01-25T11:56:37.452Z,68.20
2023-01-25T11:59:27.156Z,68.90
2023-01-25T12:02:11.997Z,69.40
2023-01-25T12:05:29.803Z,69.10
2023-01-25T12:08:15.631Z,69.50
2023-01-25T12:11:06.375Z,70.10
2023-01-25T12:14:11.611Z,70.40
2023-01-25T12:17:14.170Z,70.70
2023-01-25T12:20:06.723Z,70.70
2023-01-25T12:23:08.265Z,71.10
2023-01-25T12:25:54.831Z,71.30
2023-01-25T12:28:36.406Z,71.70
2023-01-25T12:31:18.697Z,72.00
2023-01-25T12:34:14.462Z,72.40
2023-01-25T12:36:53.095Z,72.10
2023-01-25T12:39:33.908Z,72.30
2023-01-25T12:43:10.267Z,71.20
2023-01-25T12:45:43.758Z,71.00
2023-01-25T12:48:33.404Z,71.30
2023-01-25T12:51:04.435Z,71.10
2023-01-25T12:53:49.626Z,71.70
2023-01-25T12:56:35.797Z,71.70
2023-01-25T12:59:30.093Z,71.50
2023-01-25T13:02:36.858Z,71.20
2023-01-25T13:05:15.119Z,71.20
2023-01-25T13:07:56.092Z,71.20
2023-01-25T13:10:33.842Z,71.40
2023-01-25T13:13:20.870Z,72.00
2023-01-25T13:15:51.474Z,71.90
2023-01-25T13:18:31.082Z,71.70
2023-01-25T13:21:07.093Z,72.00
2023-01-25T13:23:48.049Z,72.50
2023-01-25T13:26:27.755Z,72.60
2023-01-25T13:29:01.172Z,72.50
2023-01-25T13:31:51.655Z,73.20
2023-01-25T13:34:38.678Z,73.40
2023-01-25T13:37:26.864Z,74.60
2023-01-25T13:40:09.686Z,74.40
2023-01-25T13:42:42.961Z,74.90
2023-01-25T13:45:22.769Z,75.00
2023-01-25T13:48:15.112Z,75.00
2023-01-25T13:51:09.135Z,75.40
2023-01-25T13:53:42.954Z,75.40
2023-01-25T13:56:35.083Z,75.60
2023-01-25T13:59:05.945Z,75.50
2023-01-25T14:01:38.293Z,75.50
2023-01-25T14:04:08.876Z,75.70
2023-01-25T14:06:43.820Z,75.40
2023-01-25T14:09:22.749Z,76.00
2023-01-25T14:12:02.564Z,76.50
2023-01-25T14:14:37.719Z,75.80
2023-01-25T14:17:34.665Z,76.00
2023-01-25T14:20:18.959Z,76.40
2023-01-25T14:22:54.030Z,77.20
2023-01-25T14:25:27.499Z,77.50
2023-01-25T14:28:05.850Z,76.30
2023-01-25T14:30:38.866Z,76.40
2023-01-25T14:33:35.662Z,77.40
2023-01-25T14:36:24.107Z,76.60
2023-01-25T14:38:56.137Z,77.70
2023-01-25T14:41:32.192Z,77.50
2023-01-25T14:44:06.450Z,77.50
2023-01-25T14:46:38.411Z,77.70
2023-01-25T14:49:12.153Z,77.70
2023-01-25T14:51:57.953Z,78.50
2023-01-25T14:54:34.279Z,78.30
2023-01-25T14:57:09.873Z,78.50
2023-01-25T14:59:52.945Z,78.10
2023-01-25T15:02:32.851Z,78.20
2023-01-25T15:05:15.477Z,78.40
2023-01-25T15:07:53.903Z,78.20
2023-01-25T15:10:26.693Z,79.10
2023-01-25T15:13:14.130Z,79.10
2023-01-25T15:16:03.717Z,79.10
2023-01-25T15:18:53.699Z,80.00
2023-01-25T15:21:28.753Z,79.00
2023-01-25T15:24:08.715Z,80.00
2023-01-25T15:26:39.289Z,79.20
2023-01-25T15:29:18.854Z,79.50
2023-01-25T15:31:49.930Z,79.80
2023-01-25T15:34:31.371Z,80.20
2023-01-25T15:37:01.760Z,80.10
2023-01-25T15:39:34.720Z,80.70
2023-01-25T15:42:06.658Z,80.90
2023-01-25T15:44:38.341Z,80.30
2023-01-25T15:47:08.580Z,80.10
2023-01-25T15:49:41.570Z,80.60
2023-01-25T15:52:13.690Z,81.00
2023-01-25T15:54:52.178Z,81.20
2023-01-25T15:57:36.104Z,81.50
2023-01-25T16:00:08.639Z,81.30
2023-01-25T16:02:39.104Z,81.70
2023-01-25T16:05:09.532Z,81.20
2023-01-25T16:07:41.965Z,81.40
2023-01-25T16:10:26.231Z,81.70
2023-01-25T16:12:56.623Z,82.00
2023-01-25T16:15:27.298Z,81.80
2023-01-25T16:17:57.647Z,82.00
2023-01-25T16:20:29.545Z,82.90
2023-01-25T16:22:59.821Z,83.50
2023-01-25T16:25:31.976Z,83.00
2023-01-25T16:28:02.921Z,82.90
2023-01-25T16:30:35.819Z,83.40
2023-01-25T16:33:06.616Z,83.60
2023-01-25T16:35:37.450Z,83.40
2023-01-25T16:38:07.806Z,83.50
2023-01-25T16:40:42.607Z,83.30
2023-01-25T16:43:12.833Z,83.50
2023-01-25T16:45:43.756Z,83.60
2023-01-25T16:48:19.363Z,83.60
2023-01-25T16:50:52.958Z,83.90
2023-01-25T16:53:23.205Z,84.20
2023-01-25T16:55:53.831Z,84.80
2023-01-25T16:58:24.192Z,84.40
2023-01-25T17:00:54.502Z,83.80
2023-01-25T17:03:24.842Z,84.00
2023-01-25T17:05:56.208Z,84.10
2023-01-25T17:08:30.692Z,84.80
2023-01-25T17:11:07.192Z,85.00
2023-01-25T17:13:37.603Z,84.40
2023-01-25T17:16:09.020Z,85.50
2023-01-25T17:18:39.302Z,85.90
2023-01-25T17:21:10.444Z,84.70
2023-01-25T17:23:41.342Z,85.00
2023-01-25T17:26:14.957Z,86.40
2023-01-25T17:28:46.853Z,85.40
2023-01-25T17:31:27.900Z,85.40
2023-01-25T17:33:59.509Z,86.10
2023-01-25T17:36:29.889Z,85.30
2023-01-25T17:39:06.594Z,85.20
2023-01-25T17:41:37.929Z,86.10
2023-01-25T17:44:08.261Z,86.10
2023-01-25T17:46:39.226Z,87.20
2023-01-25T17:49:16.787Z,85.60
2023-01-25T17:51:47.461Z,86.30
2023-01-25T17:54:18.379Z,86.70
2023-01-25T17:56:48.779Z,85.80
2023-01-25T17:59:19.561Z,86.30
2023-01-25T18:01:49.943Z,86.70
2023-01-25T18:04:21.276Z,86.80
2023-01-25T18:06:51.976Z,86.70
2023-01-25T18:09:22.844Z,87.40
2023-01-25T18:11:53.053Z,86.50
2023-01-25T18:14:23.403Z,86.70
2023-01-25T18:16:53.761Z,86.90
2023-01-25T18:19:24.162Z,87.00
2023-01-25T18:21:55.806Z,87.30
2023-01-25T18:24:30.675Z,87.70
2023-01-25T18:27:21.136Z,87.70
2023-01-25T18:30:05.388Z,87.90
2023-01-25T18:32:35.789Z,87.30
2023-01-25T18:35:06.446Z,87.20
2023-01-25T18:37:46.002Z,87.80
2023-01-25T18:40:19.258Z,87.90
2023-01-25T18:42:50.962Z,87.40
2023-01-25T18:45:21.701Z,88.00
2023-01-25T18:47:52.417Z,87.40
2023-01-25T18:50:22.813Z,86.90
2023-01-25T18:52:53.432Z,87.60
2023-01-25T18:55:23.770Z,88.00
2023-01-25T18:57:54.053Z,87.70
2023-01-25T19:00:24.308Z,87.20
2023-01-25T19:02:55.269Z,87.40
2023-01-25T19:05:25.648Z,87.60
2023-01-25T19:07:56.212Z,88.20
2023-01-25T19:10:26.456Z,88.80
2023-01-25T19:12:57.213Z,87.50
2023-01-25T19:15:27.485Z,88.70
2023-01-25T19:17:57.833Z,88.70
2023-01-25T19:20:30.353Z,89.20
2023-01-25T19:23:00.667Z,88.50
2023-01-25T19:25:32.288Z,89.50
2023-01-25T19:28:03.254Z,89.70
2023-01-25T19:30:33.643Z,89.40
2023-01-25T19:33:04.021Z,89.20
2023-01-25T19:35:34.883Z,89.40
2023-01-25T19:38:05.240Z,89.40
2023-01-25T19:40:35.677Z,89.90
2023-01-25T19:43:05.910Z,90.40
2023-01-25T19:45:37.275Z,90.20
2023-01-25T19:48:08.382Z,89.10
2023-01-25T19:50:39.089Z,90.20
2023-01-25T19:53:09.848Z,90.10
2023-01-25T19:55:40.136Z,89.90
2023-01-25T19:58:11.503Z,89.60
2023-01-25T20:00:42.617Z,89.80
2023-01-25T20:03:16.650Z,89.60
2023-01-25T20:05:47.256Z,89.90
2023-01-25T20:08:17.777Z,89.70
2023-01-25T20:10:48.187Z,90.10
2023-01-25T20:13:18.650Z,90.10
2023-01-25T20:15:50.169Z,90.50
2023-01-25T20:18:20.860Z,90.60
2023-01-25T20:21:18.867Z,90.20
2023-01-25T20:23:51.657Z,90.60
2023-01-25T20:26:34.125Z,91.00
2023-01-25T20:29:04.512Z,91.00
2023-01-25T20:31:41.113Z,91.10
2023-01-25T20:34:22.923Z,90.80
2023-01-25T20:36:54.311Z,91.00
2023-01-25T20:39:25.152Z,91.10
2023-01-25T20:41:56.296Z,91.10
2023-01-25T20:44:27.617Z,91.20
2023-01-25T20:46:59.205Z,91.10
2023-01-25T20:49:29.560Z,91.30
2023-01-25T20:51:59.843Z,91.30
2023-01-25T20:54:30.187Z,91.20
2023-01-25T20:57:00.473Z,90.70
2023-01-25T20:59:30.931Z,91.00
2023-01-25T21:02:01.245Z,90.70
2023-01-25T21:04:31.746Z,90.90
2023-01-25T21:07:02.022Z,91.00
2023-01-25T21:09:32.527Z,90.80
2023-01-25T21:12:03.287Z,90.70
2023-01-25T21:14:33.674Z,90.60
2023-01-25T21:17:03.990Z,90.50
2023-01-25T21:19:34.440Z,90.30
2023-01-25T21:22:04.804Z,90.20
2023-01-25T21:24:35.148Z,89.90
2023-01-25T21:27:05.814Z,90.00
2023-01-25T21:29:36.521Z,89.90
2023-01-25T21:32:06.949Z,89.20
2023-01-25T21:34:38.924Z,88.70
2023-01-25T21:37:09.907Z,88.60
2023-01-25T21:39:40.439Z,87.90
2023-01-25T21:42:11.016Z,87.60
2023-01-25T21:44:59.204Z,86.60
2023-01-25T21:47:31.762Z,84.40
2023-01-25T21:50:20.323Z,82.60
2023-01-25T21:52:51.115Z,80.50
2023-01-25T21:55:22.106Z,78.70
2023-01-25T21:57:52.776Z,76.70
2023-01-25T22:00:23.560Z,75.50
2023-01-25T22:02:54.320Z,73.90
2023-01-25T22:05:25.072Z,73.40
2023-01-25T22:07:55.426Z,72.50
2023-01-25T22:10:28.009Z,71.40
2023-01-25T22:12:58.266Z,70.40
2023-01-25T22:15:29.039Z,68.60
2023-01-25T22:18:00.174Z,67.90
2023-01-25T22:20:30.799Z,67.40
2023-01-25T22:23:01.001Z,66.80
2023-01-25T22:25:31.219Z,65.90
2023-01-25T22:28:02.980Z,64.90
2023-01-25T22:30:33.361Z,64.30
2023-01-25T22:33:03.992Z,63.20
2023-01-25T22:35:34.561Z,63.40
2023-01-25T22:38:05.464Z,63.20
2023-01-25T22:40:36.207Z,62.20
2023-01-25T22:43:07.533Z,62.50
2023-01-25T22:45:38.420Z,62.40
2023-01-25T22:48:09.358Z,62.50
2023-01-25T22:50:40.001Z,63.00
2023-01-25T22:53:10.207Z,62.30
2023-01-25T22:55:40.513Z,61.40
2023-01-25T22:58:11.668Z,61.00
2023-01-25T23:00:41.972Z,59.40
2023-01-25T23:03:13.173Z,58.50
2023-01-25T23:05:43.544Z,59.30
2023-01-25T23:08:14.163Z,58.40
2023-01-25T23:10:44.564Z,58.30
2023-01-25T23:13:14.785Z,59.00
2023-01-25T23:15:46.166Z,57.90
2023-01-25T23:18:34.371Z,57.30
2023-01-25T23:21:08.013Z,57.90
2023-01-25T23:23:38.313Z,57.30
2023-01-25T23:26:09.283Z,56.90
2023-01-25T23:28:41.428Z,53.50
2023-01-25T23:31:23.381Z,54.90
2023-01-25T23:34:02.887Z,54.50
2023-01-25T23:36:45.212Z,54.20
2023-01-25T23:39:16.776Z,53.80
2023-01-25T23:41:47.771Z,50.90
2023-01-25T23:44:18.669Z,50.50
2023-01-25T23:46:49.397Z,49.00
2023-01-25T23:49:19.697Z,48.40
2023-01-25T23:51:49.917Z,48.50
2023-01-25T23:54:20.222Z,48.20
2023-01-25T23:56:50.554Z,47.80
2023-01-25T23:59:21.343Z,48.00
